Time;durP1;ratioP1;P1;durP2;ratioP2;P2;SDS_P1;SDS_P2;PMS_P1;PMS_P2;Temp;Humidity;BMP_temperature;BMP_pressure;BME280_temperature;BME280_humidity;BME280_pressure;Samples;Min_cycle;Max_cycle;Signal;HPM_P1;HPM_P2
2023/03/06 00:01:59;;;;;;;4.30;3.80;;;;;;;3.88;100.00;99353.38;4959158;28;20223;-63
2023/03/06 00:04:25;;;;;;;4.07;3.67;;;;;;;3.77;100.00;99344.50;4969929;28;20245;-62
2023/03/06 00:06:50;;;;;;;4.87;3.67;;;;;;;3.79;100.00;99341.00;4971340;28;20184;-64
2023/03/06 00:09:15;;;;;;;4.00;3.60;;;;;;;3.85;100.00;99343.31;4973731;28;20181;-64
2023/03/06 00:11:41;;;;;;;5.83;3.97;;;;;;;3.75;100.00;99339.47;4971208;28;20266;-64
2023/03/06 00:14:06;;;;;;;4.63;4.17;;;;;;;3.75;100.00;99341.19;4971496;28;20191;-64
2023/03/06 00:16:31;;;;;;;5.97;3.33;;;;;;;3.79;100.00;99332.56;4964707;28;20742;-64
2023/03/06 00:18:56;;;;;;;4.97;4.30;;;;;;;3.77;100.00;99331.78;4977499;28;20232;-64
2023/03/06 00:21:22;;;;;;;4.63;3.80;;;;;;;3.72;100.00;99327.69;4973890;28;20764;-66
2023/03/06 00:23:47;;;;;;;4.17;3.60;;;;;;;3.70;100.00;99329.47;4978530;28;20188;-66
2023/03/06 00:26:12;;;;;;;6.13;3.73;;;;;;;3.73;100.00;99328.53;4971364;28;20666;-64
2023/03/06 00:28:37;;;;;;;5.77;3.50;;;;;;;3.77;100.00;99326.69;4973383;28;20178;-64
2023/03/06 00:31:03;;;;;;;5.90;4.43;;;;;;;3.67;100.00;99324.50;4964720;28;20235;-64
2023/03/06 00:33:28;;;;;;;5.57;3.53;;;;;;;3.49;100.00;99318.41;4976184;28;20544;-64
2023/03/06 00:35:53;;;;;;;4.10;3.70;;;;;;;3.45;100.00;99321.97;4972776;28;20215;-64
2023/03/06 00:38:19;;;;;;;5.60;3.40;;;;;;;3.57;100.00;99317.28;4973365;28;20560;-65
2023/03/06 00:40:44;;;;;;;3.83;3.50;;;;;;;3.52;100.00;99317.47;4968781;28;20227;-64
2023/03/06 00:43:10;;;;;;;6.30;3.93;;;;;;;3.47;100.00;99317.63;4969219;28;20594;-64
2023/03/06 00:45:35;;;;;;;6.03;4.00;;;;;;;3.49;100.00;99317.59;4973040;28;20176;-63
2023/03/06 00:48:00;;;;;;;4.80;3.73;;;;;;;3.48;100.00;99316.75;4971446;28;20180;-64
2023/03/06 00:50:26;;;;;;;6.37;4.10;;;;;;;3.49;100.00;99308.22;4966196;28;20226;-63
2023/03/06 00:52:51;;;;;;;4.67;4.10;;;;;;;3.49;100.00;99304.88;4984953;28;20188;-63
2023/03/06 00:55:16;;;;;;;4.27;3.87;;;;;;;3.46;100.00;99300.75;4972922;28;20180;-64
2023/03/06 00:57:42;;;;;;;4.53;4.00;;;;;;;3.58;100.00;99294.34;4972305;28;20184;-64
2023/03/06 01:00:09;;;;;;;5.47;3.73;;;;;;;3.62;100.00;99287.41;4963302;28;20199;-64
2023/03/06 01:02:34;;;;;;;4.77;3.83;;;;;;;3.62;100.00;99283.19;4986814;28;20222;-64
2023/03/06 01:04:59;;;;;;;5.80;4.07;;;;;;;3.68;100.00;99282.09;4972603;28;20192;-63
2023/03/06 01:07:26;;;;;;;4.47;4.07;;;;;;;3.74;100.00;99279.31;4970289;28;20176;-64
2023/03/06 01:09:52;;;;;;;6.17;5.20;;;;;;;3.74;100.00;99281.03;4968363;28;20203;-63
2023/03/06 01:12:17;;;;;;;5.70;4.10;;;;;;;3.80;100.00;99279.06;4977709;28;20219;-64
2023/03/06 01:14:43;;;;;;;5.23;4.13;;;;;;;3.83;100.00;99273.88;4973017;28;20540;-63
2023/03/06 01:17:08;;;;;;;5.50;3.80;;;;;;;3.83;100.00;99268.78;4971017;28;20187;-64
2023/03/06 01:19:33;;;;;;;4.90;4.03;;;;;;;3.81;100.00;99262.09;4971228;28;20283;-64
2023/03/06 01:21:59;;;;;;;5.80;3.17;;;;;;;3.76;100.00;99261.44;4977144;28;20240;-64
2023/03/06 01:24:24;;;;;;;4.67;4.13;;;;;;;3.66;100.00;99258.41;4971373;28;20635;-64
2023/03/06 01:26:50;;;;;;;5.33;4.30;;;;;;;3.72;100.00;99253.94;4972008;28;20187;-64
2023/03/06 01:29:16;;;;;;;5.03;4.30;;;;;;;3.78;100.00;99247.75;4971181;28;20180;-64
2023/03/06 01:31:41;;;;;;;5.30;4.07;;;;;;;3.86;100.00;99243.19;4964272;28;20227;-64
2023/03/06 01:34:06;;;;;;;4.97;4.17;;;;;;;3.78;100.00;99241.84;4970571;28;20192;-63
2023/03/06 01:36:31;;;;;;;5.17;4.67;;;;;;;3.78;100.00;99247.75;4972063;28;20695;-64
2023/03/06 01:38:57;;;;;;;4.73;4.17;;;;;;;3.74;100.00;99242.88;4971362;28;20728;-65
2023/03/06 01:41:22;;;;;;;5.10;4.60;;;;;;;3.69;100.00;99236.25;4972390;28;20223;-64
2023/03/06 01:43:48;;;;;;;5.33;4.83;;;;;;;3.60;100.00;99231.53;4973631;28;20400;-64
2023/03/06 01:46:30;;;;;;;5.97;4.93;;;;;;;3.59;100.00;99236.69;4974365;28;20540;-63
2023/03/06 01:49:04;;;;;;;5.13;4.47;;;;;;;3.57;100.00;99234.19;4975059;28;20184;-63
2023/03/06 01:51:44;;;;;;;6.03;4.50;;;;;;;3.54;100.00;99224.97;4968190;28;20648;-63
2023/03/06 01:54:33;;;;;;;4.63;3.77;;;;;;;3.36;100.00;99228.22;4978619;28;20199;-64
2023/03/06 01:57:04;;;;;;;7.90;5.00;;;;;;;3.41;100.00;99221.25;4975494;28;20229;-63
2023/03/06 01:59:33;;;;;;;8.27;5.87;;;;;;;3.44;100.00;99222.88;4976584;28;20192;-63
2023/03/06 02:02:01;;;;;;;7.20;5.53;;;;;;;3.49;100.00;99223.50;4967326;28;20230;-64
2023/03/06 02:04:27;;;;;;;5.90;4.70;;;;;;;3.38;100.00;99216.28;4976373;28;20196;-64
2023/03/06 02:06:53;;;;;;;5.50;4.90;;;;;;;3.34;100.00;99209.69;4974016;28;20628;-64
2023/03/06 02:09:19;;;;;;;7.13;5.67;;;;;;;3.36;100.00;99202.81;4974737;28;20180;-63
2023/03/06 02:11:45;;;;;;;6.37;4.90;;;;;;;3.43;100.00;99206.75;4967507;28;20234;-64
2023/03/06 02:14:12;;;;;;;6.93;4.33;;;;;;;3.38;100.00;99195.94;4978057;28;20586;-63
2023/03/06 02:16:38;;;;;;;6.70;5.00;;;;;;;3.34;100.00;99209.69;4973786;28;20192;-64
2023/03/06 02:19:07;;;;;;;6.87;5.07;;;;;;;3.42;100.00;99199.22;4974286;28;20232;-63
2023/03/06 02:21:35;;;;;;;5.93;4.27;;;;;;;3.44;100.00;99200.78;4977326;28;20231;-65
2023/03/06 02:24:03;;;;;;;5.43;4.80;;;;;;;3.46;100.00;99200.72;4974244;28;20198;-64
2023/03/06 02:26:29;;;;;;;6.27;4.60;;;;;;;3.43;100.00;99198.31;4975318;28;20245;-63
2023/03/06 02:28:57;;;;;;;5.67;5.00;;;;;;;3.42;100.00;99199.22;4974387;28;20188;-63
2023/03/06 02:31:25;;;;;;;5.40;4.90;;;;;;;3.31;100.00;99192.00;4966731;28;20298;-63
2023/03/06 02:34:02;;;;;;;6.43;5.33;;;;;;;3.26;100.00;99194.72;4974061;28;20181;-63
2023/03/06 02:36:28;;;;;;;6.33;5.17;;;;;;;3.34;100.00;99194.44;4973737;28;20180;-64
2023/03/06 02:38:53;;;;;;;7.47;5.53;;;;;;;3.34;100.00;99189.34;4975634;28;20686;-63
2023/03/06 02:41:19;;;;;;;6.57;5.20;;;;;;;3.30;100.00;99190.34;4967300;28;20318;-63
2023/03/06 02:43:46;;;;;;;5.20;4.70;;;;;;;3.32;100.00;99183.47;4980923;28;20652;-63
2023/03/06 02:46:11;;;;;;;5.63;5.10;;;;;;;3.32;100.00;99186.84;4972974;28;20185;-63
2023/03/06 02:48:37;;;;;;;5.90;5.00;;;;;;;3.20;100.00;99190.72;4975516;28;20191;-64
2023/03/06 02:51:02;;;;;;;6.57;5.70;;;;;;;3.20;100.00;99188.16;4972396;28;20227;-63
2023/03/06 02:53:28;;;;;;;7.03;5.07;;;;;;;3.09;100.00;99180.13;4982589;28;20612;-64
2023/03/06 02:55:53;;;;;;;6.60;5.37;;;;;;;3.11;100.00;99177.53;4973580;28;20266;-64
2023/03/06 02:58:19;;;;;;;9.20;5.90;;;;;;;3.15;100.00;99176.50;4974360;28;20182;-64
2023/03/06 03:00:45;;;;;;;8.03;6.23;;;;;;;3.12;100.00;99169.84;4969969;28;20219;-63
2023/03/06 03:03:10;;;;;;;7.23;5.83;;;;;;;3.02;100.00;99171.91;4973806;28;20184;-63
2023/03/06 03:05:36;;;;;;;6.67;5.53;;;;;;;3.05;100.00;99173.50;4974930;28;20186;-63
2023/03/06 03:08:01;;;;;;;6.93;6.03;;;;;;;2.98;100.00;99175.44;4973024;28;20184;-63
2023/03/06 03:10:27;;;;;;;8.10;6.30;;;;;;;2.99;100.00;99164.41;4968273;28;20312;-63
2023/03/06 03:12:52;;;;;;;6.90;6.10;;;;;;;3.03;100.00;99162.59;4973455;28;20503;-64
2023/03/06 03:15:17;;;;;;;7.23;5.93;;;;;;;3.02;100.00;99161.72;4975031;28;20231;-63
2023/03/06 03:17:43;;;;;;;7.50;5.63;;;;;;;3.03;100.00;99163.41;4972719;28;20211;-64
2023/03/06 03:20:13;;;;;;;8.47;5.50;;;;;;;3.06;100.00;99165.00;4969437;28;20183;-63
2023/03/06 03:22:39;;;;;;;8.07;6.43;;;;;;;3.11;100.00;99160.56;4978219;28;20208;-64
2023/03/06 03:25:05;;;;;;;10.57;6.87;;;;;;;3.14;100.00;99157.91;4973383;28;20187;-63
2023/03/06 03:27:30;;;;;;;9.87;6.30;;;;;;;3.20;100.00;99162.75;4974050;28;20647;-63
2023/03/06 03:29:56;;;;;;;8.60;6.50;;;;;;;3.19;100.00;99161.09;4974109;28;20212;-62
2023/03/06 03:32:22;;;;;;;8.60;7.17;;;;;;;3.11;100.00;99160.56;4963956;28;20223;-61
2023/03/06 03:34:47;;;;;;;8.07;6.17;;;;;;;3.05;100.00;99159.09;4973347;28;20231;-62
2023/03/06 03:37:13;;;;;;;7.67;6.47;;;;;;;3.07;100.00;99153.94;4972674;28;20652;-62
2023/03/06 03:39:38;;;;;;;8.73;6.40;;;;;;;3.11;100.00;99158.00;4974549;28;20183;-62
2023/03/06 03:42:03;;;;;;;7.60;6.57;;;;;;;3.06;100.00;99152.28;4978917;28;20234;-62
2023/03/06 03:44:29;;;;;;;7.60;6.40;;;;;;;3.09;100.00;99146.25;4972907;28;20701;-62
2023/03/06 03:46:54;;;;;;;8.47;6.57;;;;;;;3.04;100.00;99147.28;4973655;28;20188;-62
2023/03/06 03:49:19;;;;;;;7.43;5.80;;;;;;;3.12;100.00;99148.69;4973071;28;20183;-62
2023/03/06 03:51:45;;;;;;;8.27;6.10;;;;;;;3.12;100.00;99148.69;4976994;28;20577;-61
2023/03/06 03:54:10;;;;;;;7.50;6.23;;;;;;;3.20;100.00;99150.03;4972755;28;20188;-61
2023/03/06 03:56:35;;;;;;;8.37;6.20;;;;;;;3.25;100.00;99144.78;4973260;28;20187;-64
2023/03/06 03:59:01;;;;;;;11.67;6.73;;;;;;;3.29;100.00;99148.03;4972563;28;20183;-63
2023/03/06 04:01:26;;;;;;;6.30;5.60;;;;;;;3.33;100.00;99134.31;4955422;28;20223;-63
2023/03/06 04:03:51;;;;;;;7.57;6.77;;;;;;;3.33;100.00;99137.66;4978122;28;20183;-63
2023/03/06 04:06:17;;;;;;;6.57;5.83;;;;;;;3.28;100.00;99129.41;4972336;28;20323;-63
2023/03/06 04:08:42;;;;;;;7.07;6.37;;;;;;;3.33;100.00;99129.22;4973754;28;20334;-63
2023/03/06 04:11:10;;;;;;;8.70;6.90;;;;;;;3.23;100.00;99132.13;4972072;28;20230;-63
2023/03/06 04:13:36;;;;;;;7.57;6.60;;;;;;;3.14;100.00;99126.56;4980175;28;20176;-63
2023/03/06 04:16:01;;;;;;;8.63;7.00;;;;;;;3.14;100.00;99122.31;4970593;28;20383;-63
2023/03/06 04:18:27;;;;;;;8.87;7.33;;;;;;;3.14;100.00;99119.78;4972069;28;20235;-64
2023/03/06 04:20:52;;;;;;;7.80;6.50;;;;;;;3.06;100.00;99124.34;4965513;28;20369;-65
2023/03/06 04:23:18;;;;;;;7.93;6.90;;;;;;;3.13;100.00;99119.84;4981988;28;20216;-63
2023/03/06 04:25:44;;;;;;;8.03;6.97;;;;;;;3.07;100.00;99111.56;4973592;28;20224;-63
2023/03/06 04:28:10;;;;;;;7.80;6.27;;;;;;;3.20;100.00;99117.00;4972467;28;20180;-63
2023/03/06 04:30:36;;;;;;;7.57;6.70;;;;;;;3.19;100.00;99112.81;4967523;28;20317;-63
2023/03/06 04:33:02;;;;;;;10.60;6.93;;;;;;;3.19;100.00;99112.81;4972007;28;20179;-63
2023/03/06 04:35:28;;;;;;;9.17;7.57;;;;;;;3.19;100.00;99106.91;4973411;28;20251;-63
2023/03/06 04:37:53;;;;;;;8.47;7.30;;;;;;;3.14;100.00;99107.06;4972742;28;20223;-63
2023/03/06 04:40:28;;;;;;;7.13;6.43;;;;;;;3.05;100.00;99100.66;4965380;28;20184;-63
2023/03/06 04:42:55;;;;;;;8.83;7.50;;;;;;;3.00;100.00;99105.09;4984533;28;20199;-64
2023/03/06 04:45:20;;;;;;;9.37;7.53;;;;;;;3.02;100.00;99097.41;4972005;28;20499;-63
2023/03/06 04:47:46;;;;;;;8.63;7.07;;;;;;;3.02;100.00;99098.22;4971155;28;20271;-63
2023/03/06 04:50:11;;;;;;;8.47;7.10;;;;;;;2.98;100.00;99094.16;4964199;28;20267;-63
2023/03/06 04:52:39;;;;;;;8.47;7.57;;;;;;;2.98;100.00;99088.25;4971627;28;20190;-63
2023/03/06 04:55:07;;;;;;;8.37;7.47;;;;;;;3.04;100.00;99091.38;4973074;28;20235;-64
2023/03/06 04:57:37;;;;;;;9.70;7.23;;;;;;;3.04;100.00;99091.38;4971302;28;20180;-63
2023/03/06 05:00:07;;;;;;;8.43;7.50;;;;;;;2.97;100.00;99091.69;4967365;28;20199;-64
2023/03/06 05:02:33;;;;;;;8.83;6.77;;;;;;;2.94;100.00;99087.56;4971398;28;20235;-64
2023/03/06 05:04:58;;;;;;;8.43;7.47;;;;;;;2.96;100.00;99084.94;4972843;28;20222;-64
2023/03/06 05:07:23;;;;;;;8.77;7.87;;;;;;;3.05;100.00;99085.41;4970935;28;20202;-64
2023/03/06 05:09:48;;;;;;;8.97;8.07;;;;;;;2.90;100.00;99086.00;4972814;28;20643;-63
2023/03/06 05:12:14;;;;;;;9.57;7.23;;;;;;;3.04;100.00;99080.41;4977599;28;20226;-63
2023/03/06 05:14:39;;;;;;;10.00;7.90;;;;;;;3.03;100.00;99079.53;4973295;28;20250;-63
2023/03/06 05:17:04;;;;;;;8.67;7.77;;;;;;;3.00;100.00;99079.69;4972164;28;20536;-63
2023/03/06 05:19:30;;;;;;;8.07;7.27;;;;;;;2.94;100.00;99076.53;4971318;28;20239;-63
2023/03/06 05:21:55;;;;;;;8.87;7.57;;;;;;;3.01;100.00;99073.69;4964025;28;20229;-63
2023/03/06 05:24:20;;;;;;;8.47;7.63;;;;;;;2.94;100.00;99072.31;4964691;28;20242;-63
2023/03/06 05:26:45;;;;;;;9.30;7.70;;;;;;;2.97;100.00;99064.56;4972023;28;20189;-63
2023/03/06 05:29:11;;;;;;;9.20;8.30;;;;;;;3.01;100.00;99072.88;4972778;28;20188;-63
2023/03/06 05:31:36;;;;;;;12.17;8.03;;;;;;;2.97;100.00;99069.63;4964147;28;20222;-63
2023/03/06 05:34:01;;;;;;;13.10;8.17;;;;;;;2.96;100.00;99070.50;4971510;28;20203;-63
2023/03/06 05:36:27;;;;;;;10.03;8.17;;;;;;;2.83;100.00;99062.56;4971811;28;20218;-63
2023/03/06 05:38:52;;;;;;;9.23;7.93;;;;;;;2.82;100.00;99067.72;4971120;28;20188;-63
2023/03/06 05:41:17;;;;;;;9.20;7.90;;;;;;;2.80;100.00;99067.75;4971616;28;20558;-64
2023/03/06 05:43:42;;;;;;;8.50;7.60;;;;;;;2.85;100.00;99075.19;4978545;28;20192;-64
2023/03/06 05:46:10;;;;;;;10.23;8.00;;;;;;;2.80;100.00;99074.56;4971575;28;20191;-64
2023/03/06 05:48:36;;;;;;;9.43;8.17;;;;;;;2.67;100.00;99074.22;4972412;28;20188;-63
2023/03/06 05:51:03;;;;;;;11.50;7.90;;;;;;;2.66;100.00;99070.81;4964016;28;20642;-63
2023/03/06 05:53:29;;;;;;;8.70;7.57;;;;;;;2.70;100.00;99069.81;4970536;28;20184;-63
2023/03/06 05:56:00;;;;;;;11.30;8.33;;;;;;;2.67;100.00;99069.13;4970097;28;20547;-64
2023/03/06 05:58:26;;;;;;;9.53;8.10;;;;;;;2.72;100.00;99064.69;4971284;28;20211;-66
2023/03/06 06:00:52;;;;;;;10.50;7.80;;;;;;;2.78;100.00;99069.53;4968445;28;20741;-63
2023/03/06 06:03:18;;;;;;;9.33;8.33;;;;;;;2.58;100.00;99071.13;4980785;28;20271;-64
2023/03/06 06:05:43;;;;;;;10.37;8.50;;;;;;;2.70;100.00;99066.47;4970800;28;20183;-62
2023/03/06 06:08:09;;;;;;;9.67;8.63;;;;;;;2.71;100.00;99065.59;4971473;28;20454;-63
2023/03/06 06:10:34;;;;;;;10.17;8.57;;;;;;;2.64;100.00;99069.22;4966073;28;20223;-63
2023/03/06 06:12:59;;;;;;;12.67;7.87;;;;;;;2.65;100.00;99061.56;4983233;28;20199;-63
2023/03/06 06:15:27;;;;;;;9.97;8.50;;;;;;;2.63;100.00;99058.25;4970820;28;20188;-62
2023/03/06 06:17:53;;;;;;;10.17;8.73;;;;;;;2.65;100.00;99063.28;4967741;28;20741;-63
2023/03/06 06:20:18;;;;;;;11.50;9.20;;;;;;;2.62;100.00;99061.69;4959334;28;20180;-63
2023/03/06 06:22:43;;;;;;;10.50;8.93;;;;;;;2.70;100.00;99063.91;4974208;28;20206;-63
2023/03/06 06:25:09;;;;;;;13.87;9.77;;;;;;;2.81;100.00;99066.06;4965650;28;20184;-63
2023/03/06 06:27:34;;;;;;;13.00;9.73;;;;;;;2.77;100.00;99060.25;4971150;28;20188;-63
2023/03/06 06:29:59;;;;;;;10.27;8.97;;;;;;;2.66;100.00;99065.75;4961571;28;20213;-64
2023/03/06 06:32:25;;;;;;;11.27;9.93;;;;;;;2.74;100.00;99068.84;4955333;28;20232;-64
2023/03/06 06:34:50;;;;;;;11.17;9.27;;;;;;;2.77;100.00;99064.50;4960248;28;20226;-64
2023/03/06 06:37:15;;;;;;;14.23;9.63;;;;;;;2.91;100.00;99067.34;4966537;28;20210;-63
2023/03/06 06:39:41;;;;;;;12.77;8.90;;;;;;;3.00;100.00;99066.13;4974178;28;20542;-64
2023/03/06 06:42:07;;;;;;;10.20;8.37;;;;;;;3.19;100.00;99074.69;4978987;28;20317;-64
2023/03/06 06:44:32;;;;;;;10.70;9.43;;;;;;;3.26;100.00;99066.81;4981957;28;20187;-65
2023/03/06 06:46:58;;;;;;;13.03;8.40;;;;;;;3.14;100.00;99073.19;4965054;28;20349;-64
2023/03/06 06:49:23;;;;;;;13.80;9.40;;;;;;;3.17;100.00;99083.25;4965435;28;20185;-64
2023/03/06 06:51:48;;;;;;;12.27;9.43;;;;;;;3.14;100.00;99078.28;4978523;28;20276;-64
2023/03/06 06:54:13;;;;;;;10.67;9.17;;;;;;;3.23;100.00;99078.75;4964912;28;20184;-64
2023/03/06 06:56:39;;;;;;;12.07;9.07;;;;;;;3.22;100.00;99077.13;4971767;28;20597;-64
2023/03/06 06:59:04;;;;;;;12.80;9.37;;;;;;;3.24;100.00;99082.13;4967770;28;20270;-64
2023/03/06 07:01:30;;;;;;;16.33;9.17;;;;;;;3.20;100.00;99078.88;4953552;28;20780;-64
2023/03/06 07:03:55;;;;;;;11.50;9.37;;;;;;;3.28;100.00;99077.75;4964396;28;20176;-64
2023/03/06 07:06:21;;;;;;;11.00;9.23;;;;;;;3.25;100.00;99078.69;4963962;28;20192;-63
2023/03/06 07:08:46;;;;;;;12.77;10.00;;;;;;;3.31;100.00;99080.16;4968038;28;20207;-64
2023/03/06 07:11:17;;;;;;;11.77;10.37;;;;;;;3.22;100.00;99077.13;4973672;28;20245;-64
2023/03/06 07:13:43;;;;;;;11.10;9.50;;;;;;;3.33;100.00;99073.28;4972903;28;20271;-63
2023/03/06 07:16:08;;;;;;;14.97;9.67;;;;;;;3.50;100.00;99083.59;4972325;28;20263;-64
2023/03/06 07:18:34;;;;;;;10.73;9.63;;;;;;;3.69;100.00;99080.28;4972563;28;20768;-65
2023/03/06 07:20:59;;;;;;;12.60;9.80;;;;;;;3.69;100.00;99077.72;4956388;28;20223;-63
2023/03/06 07:23:26;;;;;;;13.43;10.27;;;;;;;3.81;100.00;99081.47;4965628;28;20564;-64
2023/03/06 07:25:52;;;;;;;11.23;9.67;;;;;;;3.79;100.00;99080.72;4970180;28;20192;-65
2023/03/06 07:28:18;;;;;;;12.30;9.57;;;;;;;3.94;100.00;99085.13;4971377;28;20247;-64
2023/03/06 07:30:43;;;;;;;10.20;8.20;;;;;;;3.78;100.00;99092.59;4966325;28;20734;-62
2023/03/06 07:33:09;;;;;;;12.83;9.93;;;;;;;3.94;100.00;99085.13;4979735;28;20659;-63
2023/03/06 07:35:34;;;;;;;11.87;9.53;;;;;;;3.86;100.00;99092.28;4972965;28;20181;-63
2023/03/06 07:37:59;;;;;;;12.73;10.00;;;;;;;4.11;100.00;99088.66;4972222;28;20631;-63
2023/03/06 07:40:25;;;;;;;16.00;10.50;;;;;;;4.15;100.00;99083.34;4966912;28;20320;-64
2023/03/06 07:42:55;;;;;;;10.97;9.83;;;;;;;4.06;100.00;99090.56;4983833;28;20322;-63
2023/03/06 07:45:21;;;;;;;13.33;10.13;;;;;;;4.18;100.00;99093.41;4974249;28;20186;-63
2023/03/06 07:47:50;;;;;;;12.20;10.03;;;;;;;4.50;100.00;99091.16;4973366;28;20185;-63
2023/03/06 07:50:17;;;;;;;14.53;10.60;;;;;;;4.96;100.00;99082.22;4963988;28;20200;-63
2023/03/06 07:52:42;;;;;;;11.77;10.57;;;;;;;5.13;100.00;99079.69;4966095;28;20513;-62
2023/03/06 07:55:11;;;;;;;11.17;9.70;;;;;;;5.44;100.00;99082.47;4973760;28;20240;-63
2023/03/06 07:57:37;;;;;;;12.00;10.27;;;;;;;5.79;100.00;99082.41;4971514;28;20187;-63
2023/03/06 08:00:05;;;;;;;11.57;10.10;;;;;;;5.60;100.00;99092.75;4963101;28;20279;-63
2023/03/06 08:02:30;;;;;;;14.60;11.40;;;;;;;5.70;100.00;99083.72;4953431;28;20294;-62
2023/03/06 08:04:55;;;;;;;12.57;10.80;;;;;;;5.46;100.00;99091.69;4964189;28;20559;-62
2023/03/06 08:07:21;;;;;;;10.87;9.60;;;;;;;5.69;100.00;99087.16;4972001;28;20282;-63
2023/03/06 08:09:47;;;;;;;11.57;10.07;;;;;;;5.71;100.00;99087.13;4972488;28;20242;-62
2023/03/06 08:12:13;;;;;;;12.17;10.73;;;;;;;5.93;100.00;99084.28;4965635;28;20249;-63
2023/03/06 08:14:38;;;;;;;13.57;11.37;;;;;;;6.13;100.00;99086.66;4973667;28;20191;-63
2023/03/06 08:17:03;;;;;;;14.57;10.47;;;;;;;6.55;100.00;99087.00;4964362;28;20269;-62
2023/03/06 08:19:28;;;;;;;12.80;9.60;;;;;;;7.05;100.00;99094.53;4972184;28;20238;-61
2023/03/06 08:21:54;;;;;;;12.40;11.00;;;;;;;7.00;100.00;99097.34;4989159;28;20246;-63
2023/03/06 08:24:19;;;;;;;11.87;10.67;;;;;;;6.86;99.20;99095.56;4972034;28;20199;-62
2023/03/06 08:26:45;;;;;;;12.53;10.97;;;;;;;7.11;99.02;99095.00;4971498;28;20204;-62
2023/03/06 08:29:10;;;;;;;12.87;10.40;;;;;;;6.93;98.78;99091.75;4973245;28;20202;-61
2023/03/06 08:31:38;;;;;;;13.50;11.07;;;;;;;6.87;99.47;99094.66;4970820;28;20583;-61
2023/03/06 08:34:09;;;;;;;11.47;10.37;;;;;;;6.74;98.16;99096.22;4964444;28;20215;-63
2023/03/06 08:36:34;;;;;;;13.63;11.40;;;;;;;6.36;100.00;99105.03;4957106;28;20695;-63
2023/03/06 08:39:00;;;;;;;14.60;11.43;;;;;;;6.28;99.78;99091.84;4967251;28;20192;-62
2023/03/06 08:41:26;;;;;;;14.97;11.90;;;;;;;6.32;99.13;99101.00;4964616;28;20676;-61
2023/03/06 08:43:52;;;;;;;18.50;15.40;;;;;;;6.25;97.70;99097.97;4977275;28;20655;-62
2023/03/06 08:46:18;;;;;;;14.90;12.90;;;;;;;6.04;98.48;99107.56;4972453;28;20180;-62
2023/03/06 08:48:46;;;;;;;13.37;11.37;;;;;;;5.92;99.90;99113.28;4972800;28;20532;-63
2023/03/06 08:51:12;;;;;;;12.80;10.90;;;;;;;5.59;100.00;99106.41;4971597;28;20226;-62
2023/03/06 08:53:37;;;;;;;13.63;11.97;;;;;;;5.52;100.00;99105.91;4978550;28;20184;-62
2023/03/06 08:56:03;;;;;;;13.63;11.87;;;;;;;5.75;100.00;99103.91;4972067;28;20192;-61
2023/03/06 08:58:29;;;;;;;13.60;11.73;;;;;;;5.78;100.00;99098.63;4972303;28;20278;-63
2023/03/06 09:00:55;;;;;;;12.73;11.17;;;;;;;5.93;100.00;99109.81;4964567;28;20230;-64
2023/03/06 09:03:22;;;;;;;17.03;11.70;;;;;;;5.81;99.44;99106.97;4980893;28;20231;-63
2023/03/06 09:05:47;;;;;;;13.20;11.47;;;;;;;5.45;100.00;99115.56;4971392;28;20211;-62
2023/03/06 09:08:13;;;;;;;15.23;11.87;;;;;;;5.43;100.00;99113.97;4970713;28;20191;-64
2023/03/06 09:10:38;;;;;;;15.83;11.43;;;;;;;5.55;100.00;99110.81;4962564;28;20231;-63
2023/03/06 09:13:03;;;;;;;12.67;10.97;;;;;;;5.66;100.00;99115.41;4967020;28;20203;-64
2023/03/06 09:15:29;;;;;;;14.07;11.03;;;;;;;5.86;100.00;99111.03;4972774;28;20187;-64
2023/03/06 09:17:54;;;;;;;12.30;10.97;;;;;;;5.70;100.00;99116.06;4971263;28;20249;-63
2023/03/06 09:20:20;;;;;;;14.73;11.93;;;;;;;5.93;98.87;99123.38;4966858;28;20218;-63
2023/03/06 09:22:45;;;;;;;12.00;10.10;;;;;;;6.13;96.94;99106.25;4984708;28;20220;-63
2023/03/06 09:25:12;;;;;;;11.57;10.37;;;;;;;6.26;95.03;99116.66;4960727;28;20187;-62
2023/03/06 09:27:38;;;;;;;11.80;9.80;;;;;;;6.46;92.34;99111.31;4963083;28;20685;-62
2023/03/06 09:30:05;;;;;;;18.57;13.33;;;;;;;6.63;91.15;99114.69;4963045;28;20211;-64
2023/03/06 09:32:30;;;;;;;13.83;10.63;;;;;;;6.54;91.04;99126.22;4970563;28;20200;-63
2023/03/06 09:34:55;;;;;;;11.23;9.87;;;;;;;6.25;89.58;99120.94;4970096;28;20191;-63
2023/03/06 09:37:21;;;;;;;12.33;9.37;;;;;;;6.39;89.57;99115.09;4972188;28;20184;-63
2023/03/06 09:39:46;;;;;;;10.93;9.20;;;;;;;6.46;88.96;99110.47;4970809;28;20640;-63
2023/03/06 09:42:17;;;;;;;9.53;8.50;;;;;;;6.02;86.19;99117.03;4965684;28;20255;-63
2023/03/06 09:44:46;;;;;;;11.67;9.10;;;;;;;6.56;87.75;99118.47;4960687;28;20183;-63
2023/03/06 09:47:45;;;;;;;10.07;8.97;;;;;;;6.97;84.59;99119.69;4970500;28;20185;-63
2023/03/06 09:50:16;;;;;;;11.47;9.43;;;;;;;7.01;79.90;99116.03;4969542;28;20515;-61
2023/03/06 09:53:10;;;;;;;11.13;10.03;;;;;;;7.42;80.93;99116.28;4985405;28;20627;-61
2023/03/06 09:55:37;;;;;;;10.73;8.73;;;;;;;7.24;77.76;99112.22;4972418;28;20214;-62
2023/03/06 09:58:16;;;;;;;16.30;11.63;;;;;;;7.10;77.95;99116.34;4968130;28;20199;-61
2023/03/06 10:01:00;;;;;;;11.13;8.50;;;;;;;7.28;79.31;99118.78;4957488;28;20330;-62
2023/03/06 10:03:35;;;;;;;10.00;8.90;;;;;;;7.57;74.70;99113.75;4969228;28;20207;-61
2023/03/06 10:06:51;;;;;;;9.77;8.53;;;;;;;7.65;73.77;99115.88;4969800;28;20183;-61
2023/03/06 10:09:52;;;;;;;8.70;7.87;;;;;;;7.47;74.34;99110.91;4934884;29;20189;-60
2023/03/06 10:12:23;;;;;;;15.17;9.03;;;;;;;7.38;75.33;99112.25;4923783;28;21039;-60
2023/03/06 10:15:16;;;;;;;10.23;8.90;;;;;;;6.76;79.45;99113.13;4935076;29;20581;-61
2023/03/06 10:17:43;;;;;;;10.50;9.47;;;;;;;6.95;81.23;99114.66;4914880;29;20706;-61
2023/03/06 10:20:16;;;;;;;10.67;8.67;;;;;;;6.69;80.05;99111.00;4924434;28;20568;-62
2023/03/06 10:23:08;;;;;;;11.07;8.83;;;;;;;6.92;82.81;99110.56;4929967;29;20213;-61
2023/03/06 10:25:42;;;;;;;8.80;7.97;;;;;;;7.15;77.24;99100.75;4909640;29;20221;-62
2023/03/06 10:28:31;;;;;;;11.30;8.63;;;;;;;7.04;78.88;99100.53;4918084;29;20209;-62
2023/03/06 10:31:17;;;;;;;9.13;8.23;;;;;;;7.19;75.93;99099.66;4925041;28;20233;-61
2023/03/06 10:33:53;;;;;;;11.27;9.07;;;;;;;7.89;75.27;99106.75;4934608;29;20198;-60
2023/03/06 10:36:20;;;;;;;9.47;8.47;;;;;;;7.69;69.16;99102.81;4930886;29;20182;-61
2023/03/06 10:38:48;;;;;;;11.53;10.10;;;;;;;7.50;67.98;99100.47;4934297;29;20241;-61
2023/03/06 10:41:24;;;;;;;9.87;8.60;;;;;;;7.74;69.60;99107.66;4973899;28;20608;-63
2023/03/06 10:44:17;;;;;;;10.43;9.13;;;;;;;8.18;67.11;99106.72;4967008;28;20596;-61
2023/03/06 10:46:45;;;;;;;9.63;8.63;;;;;;;8.15;64.05;99098.41;4972446;28;20188;-61
2023/03/06 10:49:13;;;;;;;11.53;9.03;;;;;;;8.18;65.98;99103.34;4973093;28;20196;-62
2023/03/06 10:51:39;;;;;;;10.77;8.20;;;;;;;8.43;64.60;99102.66;4966837;28;20226;-61
2023/03/06 10:54:10;;;;;;;10.37;8.37;;;;;;;8.82;60.91;99087.47;4977950;28;20183;-61
2023/03/06 10:56:38;;;;;;;8.73;7.83;;;;;;;8.01;61.03;99097.53;4974423;28;20658;-61
2023/03/06 10:59:18;;;;;;;12.57;9.20;;;;;;;7.62;67.41;99091.28;4973457;28;20184;-61
2023/03/06 11:01:53;;;;;;;11.73;10.53;;;;;;;8.06;65.39;99095.50;4977745;28;20590;-60
2023/03/06 11:04:36;;;;;;;10.40;9.33;;;;;;;8.22;63.41;99090.28;4973395;28;20274;-62
2023/03/06 11:07:16;;;;;;;9.40;8.40;;;;;;;7.81;64.33;99093.56;4973130;28;20266;-61
2023/03/06 11:09:55;;;;;;;10.80;8.80;;;;;;;7.80;64.43;99096.22;4966853;28;20189;-61
2023/03/06 11:12:27;;;;;;;8.87;7.93;;;;;;;7.26;67.88;99090.75;4979280;28;20226;-60
2023/03/06 11:15:05;;;;;;;9.70;8.63;;;;;;;7.34;70.27;99086.94;4973468;28;20246;-61
2023/03/06 11:17:31;;;;;;;9.20;8.20;;;;;;;7.88;68.66;99096.59;4973155;28;20675;-61
2023/03/06 11:20:19;;;;;;;11.20;8.77;;;;;;;8.40;62.80;99090.06;4973598;28;20190;-61
2023/03/06 11:22:49;;;;;;;11.13;8.73;;;;;;;8.71;60.13;99095.88;4955638;28;20208;-62
2023/03/06 11:25:18;;;;;;;9.20;8.30;;;;;;;8.76;59.64;99093.00;4974892;28;20231;-62
2023/03/06 11:27:50;;;;;;;10.67;9.47;;;;;;;8.93;59.90;99085.06;4974432;28;20203;-63
2023/03/06 11:30:28;;;;;;;12.63;9.40;;;;;;;9.02;56.64;99075.97;4964430;28;20765;-61
2023/03/06 11:33:00;;;;;;;11.63;10.53;;;;;;;9.09;56.55;99073.81;4986299;28;20191;-62